Airport View

Enter AWOS ICAO identifier for current METAR.

ex. KFNL

KPNM 192135Z AUTO 20006KT 10SM CLR 27/15 A2996 RMK AO2

19 Aug 2019 21:51

Frequency: 119.025

Phone: 763-389-0615

Other Area AWOS: KCBG - KSTC - KJMR - KMGG

TAF KSTC 191739Z 1918/2018 21009KT P6SM SKC FM201000 14004KT 6SM BR OVC100 FM201200 14005KT 6SM BR OVC020 FM201500 22005KT 4SM BR OVC015 PROB30 2015/2018 3SM -TSRA OVC008CB